aviador You're here:

KLBX Decoded Metar

ANGLETON in TX, USA
Report Time2018-02-21 21:53:00
UTC Time2018-02-21 22:50:24
Flight Rules mvfr MVFR
Wind180° at 20 Gusting to 28 kt
W.Decomp.*RWY 17: 19.9 kt HW 1.7 kt RCW
W.Rank180° ranks 2
Current wind is above 180° avg. (10.0)
Visibility9999 m
Phenomena:N/A
Clouds:Broken 013 Hf
Overcast 019 Hf
Expected CloudBase > 1,200 ft AGL from Temp-Dew spread
Ceiling1,300 ft
Temp25°C (ISA +10)
Dew Point22°C (83% RH)
AAT22.4°C
QNH1017 hPa
Density Alt1,394 ft
Elevation20 ft
Report Wrong Elevation
Raw Report
METAR KLBX 212153Z AUTO 18020G28KT 8SM BKN013 OVC019 25/22 A3003 RMK
AO2 PK WND 17029/2136 SLP169 T02500217=

Extra information for KLBX:More info

Metar Taf Metar & Taf Last 4 Metars F.Rules Stats Wind Profile Meteogram Temp Stats Airport Information Weather charts Add Link Nearby VenuesMetar ALERT Operation Metar Decoded Social comments

AIRNAV info for KLBX